Time;durP1;ratioP1;P1;durP2;ratioP2;P2;SDS_P1;SDS_P2;PMS_P1;PMS_P2;Temp;Humidity;BMP_temperature;BMP_pressure;BME280_temperature;BME280_humidity;BME280_pressure;Samples;Min_cycle;Max_cycle;Signal;HPM_P1;HPM_P2
2021/12/19 00:00:25;;;;;;;5.07;0.80;;;30.40;99.90;;;;;;4978707;28;20249;-69
2021/12/19 00:08:42;;;;;;;1.50;0.83;;;30.50;99.90;;;;;;4997375;28;20548;-70
2021/12/19 00:11:11;;;;;;;1.60;0.70;;;30.60;99.90;;;;;;4996007;28;20191;-71
2021/12/19 00:13:40;;;;;;;3.87;0.70;;;30.70;99.90;;;;;;4996131;28;20174;-69
2021/12/19 00:16:09;;;;;;;2.13;1.00;;;30.60;99.90;;;;;;4996071;28;20178;-70
2021/12/19 00:18:37;;;;;;;0.93;0.60;;;30.40;99.90;;;;;;5012788;28;20189;-70
2021/12/19 00:21:06;;;;;;;2.10;0.50;;;30.50;99.90;;;;;;5011498;28;20199;-70
2021/12/19 00:23:33;;;;;;;1.07;0.60;;;30.50;99.90;;;;;;4995839;28;20261;-71
2021/12/19 00:26:01;;;;;;;2.10;0.50;;;30.40;99.90;;;;;;4995825;28;20190;-72
2021/12/19 00:28:29;;;;;;;2.43;0.80;;;30.60;99.90;;;;;;4995864;28;20171;-70
2021/12/19 00:30:57;;;;;;;1.53;0.80;;;30.60;99.90;;;;;;4980267;28;20230;-71
2021/12/19 00:33:25;;;;;;;1.93;0.50;;;30.80;99.90;;;;;;5015532;28;20562;-71
2021/12/19 00:35:52;;;;;;;0.87;0.60;;;30.70;99.90;;;;;;5015137;28;20184;-71
2021/12/19 00:38:20;;;;;;;3.47;0.82;;;30.80;99.90;;;;;;5015396;28;20178;-71
2021/12/19 00:40:49;;;;;;;3.43;0.90;;;31.00;99.90;;;;;;5013446;28;20210;-70
2021/12/19 00:43:32;;;;;;;3.10;0.83;;;31.50;99.90;;;;;;4995612;28;20171;-70
2021/12/19 00:46:07;;;;;;;2.10;0.50;;;31.80;99.90;;;;;;4995654;28;20186;-71
2021/12/19 00:48:44;;;;;;;2.40;0.57;;;32.00;99.90;;;;;;5008777;28;20269;-71
2021/12/19 00:51:15;;;;;;;1.35;0.50;;;32.50;99.90;;;;;;5010387;28;20221;-71
2021/12/19 00:53:44;;;;;;;2.10;0.73;;;33.00;99.90;;;;;;4995357;28;20225;-70
2021/12/19 00:56:13;;;;;;;1.38;0.80;;;33.20;99.90;;;;;;5014846;28;20182;-70
2021/12/19 00:58:41;;;;;;;1.58;0.47;;;33.60;99.90;;;;;;5014781;28;20232;-72
2021/12/19 01:01:10;;;;;;;4.90;1.15;;;33.40;99.90;;;;;;5013075;28;20193;-71
2021/12/19 01:03:43;;;;;;;1.33;0.52;;;33.50;99.90;;;;;;4995303;28;20183;-70
2021/12/19 01:06:11;;;;;;;1.40;0.88;;;33.80;99.90;;;;;;4994980;28;20232;-71
2021/12/19 01:08:39;;;;;;;1.50;0.40;;;33.50;99.90;;;;;;4995405;28;20175;-70
2021/12/19 01:11:07;;;;;;;2.33;0.50;;;33.70;99.90;;;;;;4994537;28;20185;-71
2021/12/19 01:13:34;;;;;;;3.42;0.95;;;33.70;99.90;;;;;;5014444;28;20178;-70
2021/12/19 01:16:02;;;;;;;2.08;0.88;;;33.70;99.90;;;;;;5005818;28;20229;-71
2021/12/19 01:18:30;;;;;;;2.83;0.52;;;33.60;99.90;;;;;;4994965;28;20182;-71
2021/12/19 01:20:58;;;;;;;4.57;0.93;;;33.70;99.90;;;;;;4977453;28;20593;-71
2021/12/19 01:23:26;;;;;;;3.65;0.93;;;34.00;99.90;;;;;;5012461;28;20273;-71
2021/12/19 01:25:54;;;;;;;2.72;0.70;;;33.80;99.90;;;;;;5014340;28;20178;-70
2021/12/19 01:28:21;;;;;;;4.75;0.68;;;33.90;99.90;;;;;;5014088;28;20183;-69
2021/12/19 01:30:49;;;;;;;2.17;0.65;;;34.30;99.90;;;;;;5014021;28;20225;-70
2021/12/19 01:33:17;;;;;;;1.63;0.68;;;34.70;99.90;;;;;;4996238;28;20187;-71
2021/12/19 01:35:45;;;;;;;2.63;0.60;;;35.30;99.90;;;;;;4994694;28;20229;-70
2021/12/19 01:38:12;;;;;;;5.20;1.20;;;35.20;99.90;;;;;;5014090;28;20178;-71
2021/12/19 01:40:41;;;;;;;1.00;0.50;;;35.30;99.90;;;;;;5014039;28;20221;-71
2021/12/19 01:43:08;;;;;;;1.98;0.93;;;35.30;99.90;;;;;;4997354;28;20193;-70
2021/12/19 01:45:39;;;;;;;3.88;1.00;;;35.20;99.90;;;;;;4994469;28;20182;-69
2021/12/19 01:48:13;;;;;;;1.13;0.70;;;34.80;99.90;;;;;;4994495;28;20175;-71
2021/12/19 01:50:42;;;;;;;3.63;0.55;;;34.70;99.90;;;;;;4994167;28;20181;-71
2021/12/19 01:53:12;;;;;;;3.38;0.70;;;34.80;99.90;;;;;;5008720;28;20560;-69
2021/12/19 01:55:42;;;;;;;2.05;0.45;;;35.20;99.90;;;;;;5013924;28;20197;-69
2021/12/19 01:58:11;;;;;;;1.45;0.70;;;35.40;99.90;;;;;;5013812;28;20538;-70
2021/12/19 02:00:46;;;;;;;3.00;0.73;;;35.60;99.90;;;;;;5013764;28;20224;-69
2021/12/19 02:03:15;;;;;;;1.48;0.55;;;35.50;99.90;;;;;;4999107;28;20252;-69
2021/12/19 02:05:43;;;;;;;2.83;0.50;;;35.70;99.90;;;;;;4994051;28;20534;-69
2021/12/19 02:08:12;;;;;;;2.17;0.40;;;35.40;99.90;;;;;;4994043;28;20535;-70
2021/12/19 02:10:41;;;;;;;1.65;0.50;;;35.20;99.90;;;;;;4994927;28;20182;-70
2021/12/19 02:13:10;;;;;;;2.20;0.98;;;35.20;99.90;;;;;;4994108;28;20186;-70
2021/12/19 02:15:40;;;;;;;2.83;0.40;;;35.10;99.90;;;;;;4993956;28;20178;-70
2021/12/19 02:18:11;;;;;;;2.08;0.70;;;34.80;99.90;;;;;;4976433;28;20193;-71
2021/12/19 02:20:47;;;;;;;3.70;0.43;;;34.90;99.90;;;;;;5006286;28;20245;-69
2021/12/19 02:23:15;;;;;;;4.82;0.80;;;35.00;99.90;;;;;;4995861;28;20178;-71
2021/12/19 02:25:43;;;;;;;3.72;0.75;;;34.80;99.90;;;;;;5012154;28;20382;-70
2021/12/19 02:28:12;;;;;;;4.22;0.52;;;35.10;99.90;;;;;;5012359;28;20556;-70
2021/12/19 02:30:40;;;;;;;1.75;0.40;;;35.20;99.90;;;;;;4998836;28;20245;-71
2021/12/19 02:33:16;;;;;;;1.85;0.70;;;35.50;99.90;;;;;;4993633;28;20531;-70
2021/12/19 02:35:50;;;;;;;1.83;0.70;;;35.70;99.90;;;;;;4993662;28;20186;-70
2021/12/19 02:49:35;;;;;;;2.20;0.75;;;35.20;99.90;;;;;;4993663;28;20217;-70
2021/12/19 02:52:10;;;;;;;1.10;0.75;;;35.30;99.90;;;;;;4993487;28;20550;-70
2021/12/19 02:54:38;;;;;;;2.65;0.70;;;35.30;98.40;;;;;;4993508;28;20224;-70
2021/12/19 02:57:06;;;;;;;2.20;0.55;;;35.30;99.90;;;;;;4975927;28;20217;-69
2021/12/19 02:59:34;;;;;;;1.98;0.80;;;35.50;99.90;;;;;;4995985;28;20210;-70
2021/12/19 03:02:01;;;;;;;3.65;0.50;;;35.90;99.90;;;;;;4994506;28;20181;-69
2021/12/19 03:04:29;;;;;;;5.00;0.80;;;35.80;98.90;;;;;;4994686;28;20205;-70
2021/12/19 03:06:57;;;;;;;3.90;1.05;;;35.60;96.90;;;;;;5013098;28;20588;-69
2021/12/19 03:20:30;;;;;;;2.17;0.50;;;35.40;99.90;;;;;;5005652;28;20272;-70
2021/12/19 03:22:58;;;;;;;2.33;0.47;;;35.10;99.90;;;;;;4975907;28;20179;-71
2021/12/19 03:25:27;;;;;;;2.33;0.57;;;34.90;99.90;;;;;;4993390;28;20181;-70
2021/12/19 03:27:55;;;;;;;1.70;0.70;;;34.80;99.90;;;;;;5001402;28;20660;-70
2021/12/19 03:30:23;;;;;;;1.35;0.80;;;34.90;99.90;;;;;;5009375;28;20592;-71
2021/12/19 03:32:51;;;;;;;1.63;0.60;;;35.10;99.90;;;;;;5009300;28;20182;-70
2021/12/19 03:35:19;;;;;;;1.75;0.63;;;35.30;99.90;;;;;;4996894;28;20206;-70
2021/12/19 03:37:47;;;;;;;2.47;0.50;;;35.00;99.90;;;;;;4997275;28;20179;-70
2021/12/19 03:40:22;;;;;;;3.10;0.68;;;35.20;99.90;;;;;;4996894;28;20250;-71
2021/12/19 03:42:53;;;;;;;2.15;0.40;;;35.40;99.90;;;;;;4996845;28;20648;-70
2021/12/19 03:45:23;;;;;;;1.48;0.32;;;35.10;99.90;;;;;;4996734;28;20178;-70
2021/12/19 03:47:51;;;;;;;2.83;0.60;;;35.10;99.90;;;;;;4996741;28;20186;-71
2021/12/19 03:50:22;;;;;;;4.70;0.60;;;35.00;99.90;;;;;;5016022;28;20212;-68
2021/12/19 03:52:52;;;;;;;1.58;0.40;;;34.70;99.90;;;;;;4999668;28;20186;-71
2021/12/19 03:55:21;;;;;;;3.47;0.40;;;34.40;99.90;;;;;;4996459;28;20649;-70
2021/12/19 03:57:49;;;;;;;2.45;0.40;;;34.40;99.90;;;;;;4996433;28;20838;-70
2021/12/19 04:00:24;;;;;;;6.70;0.95;;;34.90;99.90;;;;;;4997913;28;20222;-71
2021/12/19 04:03:04;;;;;;;6.28;0.95;;;35.10;99.90;;;;;;4996337;28;20185;-70
2021/12/19 04:05:33;;;;;;;5.13;0.82;;;34.90;99.90;;;;;;4996200;28;20178;-70
2021/12/19 04:08:02;;;;;;;6.10;0.50;;;34.10;99.90;;;;;;4979319;28;20521;-70
2021/12/19 04:10:29;;;;;;;1.40;0.45;;;33.60;99.90;;;;;;4998083;28;20197;-71
2021/12/19 04:12:58;;;;;;;0.85;0.77;;;33.30;99.90;;;;;;5015772;28;20174;-71
2021/12/19 04:15:27;;;;;;;6.88;0.63;;;33.20;99.90;;;;;;5014324;28;20268;-71
2021/12/19 04:17:55;;;;;;;2.22;0.60;;;33.10;99.90;;;;;;5015714;28;20316;-71
2021/12/19 04:20:23;;;;;;;3.72;0.60;;;32.90;99.90;;;;;;5014894;28;20694;-71
2021/12/19 04:22:52;;;;;;;1.10;0.40;;;32.80;99.90;;;;;;5015420;28;20175;-71
2021/12/19 04:25:20;;;;;;;1.35;0.30;;;32.80;99.90;;;;;;5013486;28;20197;-71
2021/12/19 04:27:49;;;;;;;2.08;0.50;;;32.80;99.90;;;;;;4996108;28;20182;-71
2021/12/19 04:30:21;;;;;;;3.95;0.73;;;33.10;99.90;;;;;;4978132;28;20233;-72
2021/12/19 04:33:09;;;;;;;3.53;0.45;;;33.10;99.90;;;;;;4995747;28;20636;-72
2021/12/19 04:35:39;;;;;;;1.95;0.60;;;33.20;99.90;;;;;;4995597;28;20190;-72
2021/12/19 04:54:24;;;;;;;4.28;0.40;;;32.30;99.90;;;;;;5008507;28;20202;-71
2021/12/19 05:15:25;;;;;;;2.00;0.60;;;31.40;99.90;;;;;;5014929;28;20185;-69
2021/12/19 05:17:56;;;;;;;3.13;0.60;;;31.30;99.90;;;;;;4996839;28;20557;-70
2021/12/19 05:20:29;;;;;;;3.80;0.60;;;31.20;99.90;;;;;;5012756;28;20217;-70
2021/12/19 05:23:09;;;;;;;2.17;0.43;;;31.00;99.90;;;;;;4995766;28;20186;-69
2021/12/19 05:25:37;;;;;;;1.93;0.43;;;30.70;99.90;;;;;;5013506;28;20269;-70
2021/12/19 05:28:05;;;;;;;2.63;1.00;;;30.70;99.90;;;;;;5014460;28;20518;-70
2021/12/19 05:30:32;;;;;;;1.53;0.63;;;30.50;99.90;;;;;;4998560;28;20273;-69
2021/12/19 05:33:02;;;;;;;4.17;0.77;;;30.40;99.90;;;;;;4994548;28;20170;-69
2021/12/19 05:46:33;;;;;;;5.03;0.63;;;30.20;99.90;;;;;;5014308;28;20213;-69
2021/12/19 05:49:01;;;;;;;5.23;0.63;;;30.20;99.90;;;;;;5003549;28;20170;-68
2021/12/19 05:51:29;;;;;;;6.00;1.17;;;30.10;99.90;;;;;;4994472;28;20190;-69
2021/12/19 05:53:58;;;;;;;1.97;0.77;;;30.10;99.90;;;;;;4994198;28;20174;-68
2021/12/19 05:56:26;;;;;;;2.10;0.53;;;30.10;99.90;;;;;;4993876;28;20182;-69
2021/12/19 05:58:55;;;;;;;0.60;0.40;;;30.10;99.90;;;;;;4992144;28;20186;-69
2021/12/19 06:01:23;;;;;;;7.10;0.70;;;30.20;99.90;;;;;;5012513;28;20235;-69
2021/12/19 06:03:51;;;;;;;3.53;0.40;;;30.10;99.90;;;;;;5012388;28;20182;-70
2021/12/19 06:06:19;;;;;;;3.07;0.60;;;30.00;99.90;;;;;;5013780;28;20176;-69
2021/12/19 06:08:46;;;;;;;2.43;0.50;;;29.60;99.90;;;;;;5013727;28;20186;-69
2021/12/19 06:11:14;;;;;;;3.30;0.77;;;29.40;99.90;;;;;;5013630;28;20288;-69
2021/12/19 06:13:43;;;;;;;1.30;0.50;;;29.30;99.90;;;;;;5008159;28;20178;-69
2021/12/19 06:16:11;;;;;;;3.17;0.40;;;29.20;99.90;;;;;;4996295;28;20183;-69
2021/12/19 06:18:39;;;;;;;1.37;0.53;;;29.10;99.90;;;;;;4976415;28;20182;-69
2021/12/19 06:21:07;;;;;;;3.30;0.50;;;29.00;99.90;;;;;;4993887;28;20320;-69
2021/12/19 06:23:34;;;;;;;4.50;0.60;;;29.00;99.90;;;;;;5007860;28;20272;-69
2021/12/19 06:26:02;;;;;;;1.53;0.50;;;29.00;99.90;;;;;;5013397;28;20631;-69
2021/12/19 06:28:30;;;;;;;2.00;0.83;;;29.00;99.90;;;;;;5013385;28;20177;-70
2021/12/19 06:30:58;;;;;;;0.87;0.50;;;28.90;99.90;;;;;;5012718;28;20229;-69
2021/12/19 06:33:26;;;;;;;0.57;0.40;;;28.90;99.90;;;;;;5013408;28;20628;-70
2021/12/19 06:35:53;;;;;;;8.23;0.70;;;28.80;99.90;;;;;;5013382;28;20182;-69
2021/12/19 06:38:21;;;;;;;1.70;0.43;;;28.80;99.90;;;;;;5012835;28;20265;-70
2021/12/19 06:40:49;;;;;;;1.37;0.60;;;28.80;99.90;;;;;;5010085;28;20226;-69
2021/12/19 06:43:17;;;;;;;0.67;0.40;;;28.70;99.90;;;;;;4993553;28;20209;-71
2021/12/19 06:45:44;;;;;;;0.83;0.43;;;28.60;99.90;;;;;;5006067;28;20232;-71
2021/12/19 06:48:12;;;;;;;2.43;0.50;;;28.60;99.90;;;;;;5013001;28;20186;-70
2021/12/19 06:50:40;;;;;;;0.73;0.40;;;28.50;99.90;;;;;;5001977;28;20185;-70
2021/12/19 06:53:08;;;;;;;1.10;0.37;;;28.40;99.90;;;;;;4994060;28;20273;-69
2021/12/19 06:55:37;;;;;;;3.80;0.70;;;28.40;99.90;;;;;;4975866;28;20278;-69
2021/12/19 06:58:05;;;;;;;5.63;0.70;;;28.30;99.90;;;;;;4992326;28;20206;-70
2021/12/19 07:00:32;;;;;;;0.47;0.43;;;28.30;99.90;;;;;;4993231;28;20218;-68
2021/12/19 07:03:00;;;;;;;1.17;0.50;;;28.30;99.90;;;;;;4975793;28;20179;-69
2021/12/19 07:05:28;;;;;;;3.03;0.50;;;28.20;99.90;;;;;;4994241;28;20190;-69
2021/12/19 07:07:56;;;;;;;0.93;0.30;;;28.20;99.90;;;;;;4994636;28;20178;-70
2021/12/19 07:10:24;;;;;;;2.53;0.50;;;28.20;99.90;;;;;;5013758;28;20190;-69
2021/12/19 07:12:51;;;;;;;4.87;0.50;;;28.20;99.90;;;;;;4999343;28;20189;-69
2021/12/19 07:15:19;;;;;;;2.03;0.70;;;28.10;99.90;;;;;;5014079;28;20664;-69
2021/12/19 07:17:47;;;;;;;0.93;0.50;;;28.20;99.90;;;;;;4997254;28;20229;-67
2021/12/19 07:20:15;;;;;;;2.43;0.50;;;28.10;99.90;;;;;;4997124;28;20238;-68
2021/12/19 07:22:42;;;;;;;1.20;0.50;;;28.20;99.90;;;;;;4995854;28;20216;-68
2021/12/19 07:25:11;;;;;;;1.03;0.50;;;28.10;99.90;;;;;;4999788;28;20729;-68
2021/12/19 07:27:39;;;;;;;9.13;0.73;;;28.10;99.90;;;;;;4997132;28;20174;-70
2021/12/19 07:30:07;;;;;;;2.23;0.70;;;28.00;99.90;;;;;;4997659;28;20696;-69
2021/12/19 07:32:37;;;;;;;1.20;0.60;;;27.80;99.90;;;;;;4997056;28;20178;-69
2021/12/19 07:35:08;;;;;;;1.83;0.60;;;27.70;99.90;;;;;;4996674;28;20194;-69
2021/12/19 07:37:37;;;;;;;1.57;0.57;;;27.50;99.90;;;;;;4996955;28;20179;-69
2021/12/19 07:40:14;;;;;;;1.00;0.43;;;27.40;99.90;;;;;;4999336;28;20217;-71
2021/12/19 07:42:42;;;;;;;1.67;0.60;;;27.30;99.90;;;;;;4998309;28;20227;-68
2021/12/19 07:45:13;;;;;;;3.33;0.70;;;27.20;99.90;;;;;;5011030;28;20550;-69
2021/12/19 07:47:42;;;;;;;1.53;0.53;;;27.20;99.90;;;;;;4996809;28;20199;-68
2021/12/19 07:50:12;;;;;;;2.23;0.77;;;27.20;99.90;;;;;;4996737;28;20179;-68
2021/12/19 07:52:41;;;;;;;3.00;0.60;;;27.10;99.90;;;;;;4996429;28;20257;-69
2021/12/19 07:55:09;;;;;;;2.87;0.90;;;27.10;99.90;;;;;;4996651;28;20194;-68
2021/12/19 07:57:37;;;;;;;0.43;0.40;;;26.90;99.90;;;;;;4996816;28;20175;-68
2021/12/19 08:00:07;;;;;;;2.07;0.50;;;26.90;99.90;;;;;;4996449;28;20301;-69
2021/12/19 08:02:35;;;;;;;2.73;0.60;;;26.90;99.90;;;;;;4996424;28;20175;-69
2021/12/19 08:05:04;;;;;;;0.93;0.50;;;26.90;99.90;;;;;;4996329;28;20198;-69
2021/12/19 08:07:32;;;;;;;3.50;0.50;;;26.80;99.90;;;;;;4997508;28;20582;-70
2021/12/19 08:12:48;;;;;;;2.13;0.53;;;26.70;99.90;;;;;;4965618;28;20663;-70
2021/12/19 08:15:16;;;;;;;1.00;0.60;;;26.60;99.90;;;;;;5016023;28;20181;-69
2021/12/19 08:17:44;;;;;;;1.17;0.50;;;26.70;99.90;;;;;;5015541;28;20640;-68
2021/12/19 08:20:14;;;;;;;1.30;0.60;;;27.00;99.90;;;;;;5013571;28;20224;-68
2021/12/19 08:22:41;;;;;;;0.50;0.40;;;26.80;99.90;;;;;;5006393;28;20640;-69
2021/12/19 08:25:09;;;;;;;0.93;0.40;;;26.70;99.90;;;;;;4998541;28;20197;-69
2021/12/19 08:27:37;;;;;;;3.30;0.80;;;26.80;99.90;;;;;;4995874;28;20179;-69
2021/12/19 08:30:09;;;;;;;1.33;0.50;;;26.70;99.90;;;;;;4995906;28;20226;-69
2021/12/19 08:32:37;;;;;;;0.97;0.63;;;26.50;99.90;;;;;;4995992;28;20177;-69
2021/12/19 08:35:07;;;;;;;0.50;0.50;;;26.30;99.90;;;;;;4978202;28;20190;-68
2021/12/19 08:37:35;;;;;;;1.20;0.50;;;26.20;99.90;;;;;;4995890;28;20621;-68
2021/12/19 08:40:05;;;;;;;0.93;0.70;;;26.20;99.90;;;;;;5000654;28;20206;-69
2021/12/19 08:42:34;;;;;;;1.30;0.60;;;26.10;99.90;;;;;;5021721;28;20174;-68
2021/12/19 08:45:02;;;;;;;1.40;0.60;;;26.00;99.90;;;;;;5009154;28;20646;-70
2021/12/19 08:47:31;;;;;;;2.13;1.00;;;26.00;99.90;;;;;;5014875;28;20182;-70
2021/12/19 08:49:59;;;;;;;1.13;0.90;;;25.90;99.90;;;;;;5013070;28;20547;-68
2021/12/19 08:52:26;;;;;;;3.03;0.83;;;25.80;99.90;;;;;;5005889;28;20190;-68
2021/12/19 08:54:54;;;;;;;2.23;0.90;;;25.70;99.90;;;;;;5015153;28;20185;-68
2021/12/19 08:57:22;;;;;;;4.07;0.90;;;25.60;99.90;;;;;;5014975;28;20519;-68
2021/12/19 08:59:50;;;;;;;1.97;0.60;;;25.60;99.90;;;;;;4997431;28;20210;-69
2021/12/19 09:02:17;;;;;;;3.60;0.77;;;25.50;99.90;;;;;;4995387;28;20720;-68
2021/12/19 09:04:45;;;;;;;4.30;0.80;;;25.40;99.90;;;;;;4995345;28;20571;-68
2021/12/19 09:07:14;;;;;;;0.83;0.63;;;25.30;99.90;;;;;;4978716;28;20182;-69
2021/12/19 09:09:43;;;;;;;0.87;0.60;;;25.20;99.90;;;;;;4977932;28;20186;-68
2021/12/19 09:12:11;;;;;;;2.87;0.80;;;25.10;99.90;;;;;;4995045;28;20191;-69
2021/12/19 09:14:39;;;;;;;1.40;0.60;;;25.00;99.90;;;;;;4995397;28;20191;-68
2021/12/19 09:17:07;;;;;;;1.30;0.70;;;24.90;99.90;;;;;;4996694;28;20183;-69
2021/12/19 09:19:35;;;;;;;2.30;0.87;;;24.70;99.90;;;;;;4995059;28;20202;-69
2021/12/19 09:22:03;;;;;;;1.27;0.70;;;24.60;99.90;;;;;;4990707;28;20216;-71
2021/12/19 09:24:31;;;;;;;1.43;0.50;;;24.50;99.90;;;;;;5014518;28;20185;-69
2021/12/19 09:27:00;;;;;;;0.83;0.60;;;24.40;99.90;;;;;;5014414;28;20180;-69
2021/12/19 09:29:28;;;;;;;1.43;0.70;;;24.40;99.90;;;;;;5012250;28;20222;-69
2021/12/19 09:31:59;;;;;;;2.20;0.53;;;24.40;99.90;;;;;;5013853;28;20189;-68
2021/12/19 09:34:28;;;;;;;1.53;0.60;;;24.30;99.90;;;;;;5013308;28;20597;-69
2021/12/19 09:37:00;;;;;;;1.73;0.63;;;24.20;99.90;;;;;;5039872;28;20222;-70
2021/12/19 09:39:28;;;;;;;1.70;0.70;;;24.20;99.90;;;;;;5023672;28;20205;-71
2021/12/19 09:42:01;;;;;;;1.90;0.50;;;24.10;99.90;;;;;;5032873;28;20196;-71
2021/12/19 09:44:29;;;;;;;3.60;0.73;;;24.20;99.90;;;;;;5014164;28;20177;-69
2021/12/19 09:46:57;;;;;;;1.80;0.63;;;24.10;99.90;;;;;;4978961;28;20182;-69
2021/12/19 09:49:24;;;;;;;1.20;0.60;;;24.10;99.90;;;;;;4994238;28;20228;-68
2021/12/19 09:51:52;;;;;;;1.87;0.60;;;24.10;99.90;;;;;;4999530;28;20248;-69
2021/12/19 09:54:20;;;;;;;1.87;0.57;;;24.10;99.90;;;;;;5013750;28;20231;-70
2021/12/19 09:56:49;;;;;;;1.13;0.63;;;24.10;99.90;;;;;;5013882;28;20272;-70
2021/12/19 09:59:20;;;;;;;2.67;0.57;;;24.00;99.90;;;;;;5014012;28;20177;-69
2021/12/19 10:01:50;;;;;;;0.97;0.40;;;24.00;99.90;;;;;;5013858;28;20205;-70
2021/12/19 10:04:41;;;;;;;0.40;0.40;;;23.90;99.90;;;;;;5013870;28;20170;-71
2021/12/19 10:07:18;;;;;;;2.40;0.43;;;23.90;99.90;;;;;;5013820;28;20177;-70
2021/12/19 10:10:11;;;;;;;1.53;0.80;;;23.90;99.90;;;;;;5014091;28;20260;-69
2021/12/19 10:15:22;;;;;;;7.60;0.60;;;23.80;99.90;;;;;;5013707;28;20186;-69
2021/12/19 10:18:09;;;;;;;0.57;0.50;;;23.80;99.90;;;;;;5012386;28;20221;-70
2021/12/19 10:20:42;;;;;;;0.93;0.50;;;23.80;99.90;;;;;;5008576;28;20245;-71
2021/12/19 10:23:36;;;;;;;2.00;0.50;;;23.70;99.90;;;;;;4993568;28;20201;-70
2021/12/19 10:26:08;;;;;;;1.00;0.50;;;23.60;99.90;;;;;;4994116;28;20185;-70
2021/12/19 10:28:57;;;;;;;0.70;0.57;;;23.60;99.90;;;;;;4994114;28;20605;-70
2021/12/19 10:31:29;;;;;;;1.67;0.67;;;23.60;99.90;;;;;;4993914;28;20201;-71
2021/12/19 10:33:57;;;;;;;0.90;0.50;;;23.50;99.90;;;;;;4994783;28;20224;-70
2021/12/19 10:36:28;;;;;;;1.03;0.60;;;23.50;99.90;;;;;;4994366;28;20232;-71
2021/12/19 10:38:56;;;;;;;0.60;0.60;;;23.40;99.90;;;;;;5013328;28;20224;-71
2021/12/19 10:41:34;;;;;;;1.30;0.83;;;23.40;99.90;;;;;;5013691;28;20226;-71
2021/12/19 10:44:10;;;;;;;0.67;0.60;;;23.40;99.90;;;;;;5012542;28;20228;-70
2021/12/19 10:46:41;;;;;;;1.33;0.60;;;23.40;99.90;;;;;;5013418;28;20177;-71
2021/12/19 10:49:38;;;;;;;1.70;0.60;;;23.30;99.90;;;;;;5013374;28;20268;-71
2021/12/19 10:52:07;;;;;;;0.83;0.70;;;23.30;99.90;;;;;;4998344;28;20204;-72
2021/12/19 10:54:35;;;;;;;0.70;0.70;;;23.30;99.90;;;;;;4993437;28;20187;-71
2021/12/19 10:57:11;;;;;;;2.23;0.63;;;23.20;99.90;;;;;;4993591;28;20181;-68
2021/12/19 10:59:43;;;;;;;0.83;0.53;;;23.20;99.90;;;;;;5011999;28;20205;-71
2021/12/19 11:02:13;;;;;;;1.97;0.50;;;23.20;99.90;;;;;;5013240;28;20280;-69
2021/12/19 11:04:41;;;;;;;3.00;0.90;;;23.20;99.90;;;;;;5013190;28;20185;-69
2021/12/19 11:07:08;;;;;;;0.40;0.40;;;23.20;99.90;;;;;;5013062;28;20521;-70
2021/12/19 11:09:37;;;;;;;1.17;0.80;;;23.20;99.90;;;;;;4998964;28;20232;-71
2021/12/19 11:12:10;;;;;;;0.77;0.60;;;23.20;99.90;;;;;;4993485;28;20186;-70
2021/12/19 11:14:44;;;;;;;0.57;0.57;;;23.20;99.90;;;;;;4993335;28;20643;-70
2021/12/19 11:17:14;;;;;;;1.07;0.60;;;23.10;99.90;;;;;;4993436;28;20178;-71
2021/12/19 11:19:43;;;;;;;1.13;0.80;;;23.10;99.90;;;;;;4993654;28;20225;-71
2021/12/19 11:22:15;;;;;;;3.93;0.90;;;23.10;99.90;;;;;;4993393;28;20181;-70
2021/12/19 11:24:43;;;;;;;2.30;0.63;;;23.10;99.90;;;;;;4993312;28;20187;-70
2021/12/19 11:27:11;;;;;;;0.80;0.77;;;23.10;99.90;;;;;;5007142;28;20266;-71
2021/12/19 11:29:40;;;;;;;0.73;0.60;;;23.00;99.90;;;;;;5012886;28;20229;-70
2021/12/19 11:32:09;;;;;;;4.10;0.90;;;23.00;99.90;;;;;;5012820;28;20225;-70
2021/12/19 11:35:04;;;;;;;2.20;0.90;;;23.00;99.90;;;;;;4993975;28;20591;-70
2021/12/19 11:38:06;;;;;;;1.93;0.90;;;23.10;99.90;;;;;;4993254;28;20211;-69
2021/12/19 11:40:36;;;;;;;1.33;0.90;;;23.00;99.90;;;;;;4992935;28;20222;-70
2021/12/19 11:43:10;;;;;;;1.73;0.73;;;23.00;99.90;;;;;;4993279;28;20179;-70
2021/12/19 11:45:46;;;;;;;3.73;1.00;;;22.90;99.90;;;;;;4994131;28;20195;-69
2021/12/19 11:48:25;;;;;;;2.10;0.93;;;22.90;99.90;;;;;;4993188;28;20175;-69
2021/12/19 11:50:57;;;;;;;1.37;0.90;;;22.80;99.90;;;;;;4992960;28;20518;-69
2021/12/19 11:53:31;;;;;;;3.30;0.97;;;22.80;99.90;;;;;;4993166;28;20257;-69
2021/12/19 11:56:14;;;;;;;2.80;1.07;;;22.80;99.90;;;;;;4999684;28;20187;-69
2021/12/19 11:58:45;;;;;;;3.70;1.43;;;22.80;99.90;;;;;;5011602;28;20186;-70
2021/12/19 12:01:27;;;;;;;3.13;1.10;;;22.80;99.90;;;;;;5016424;28;20305;-71
2021/12/19 12:03:59;;;;;;;2.13;1.20;;;22.80;99.90;;;;;;5016438;28;20185;-69
2021/12/19 12:06:36;;;;;;;1.50;1.03;;;22.80;99.90;;;;;;5016181;28;20628;-70
2021/12/19 12:09:39;;;;;;;1.93;0.73;;;22.90;99.90;;;;;;4999869;28;20269;-71
2021/12/19 12:12:10;;;;;;;4.70;1.10;;;22.90;99.90;;;;;;4989879;28;20198;-70
2021/12/19 12:14:57;;;;;;;2.27;0.83;;;22.80;99.90;;;;;;4995094;28;20219;-70
2021/12/19 12:17:40;;;;;;;1.13;0.90;;;22.80;99.90;;;;;;4997581;28;20182;-70
2021/12/19 12:20:15;;;;;;;1.60;0.90;;;22.80;99.90;;;;;;4996462;28;20214;-70
2021/12/19 12:22:56;;;;;;;1.37;0.80;;;22.80;99.90;;;;;;4996580;28;20197;-71
2021/12/19 12:25:31;;;;;;;2.10;0.80;;;22.80;99.90;;;;;;4996477;28;20179;-72
2021/12/19 12:28:09;;;;;;;3.40;1.00;;;22.80;99.90;;;;;;4997298;28;20273;-71
2021/12/19 12:30:40;;;;;;;2.53;0.80;;;22.80;99.90;;;;;;4995846;28;20591;-72
2021/12/19 12:33:11;;;;;;;2.20;0.97;;;22.80;99.90;;;;;;4996307;28;20174;-70
2021/12/19 12:35:40;;;;;;;2.37;1.10;;;22.80;99.90;;;;;;4996289;28;20171;-70
2021/12/19 12:38:09;;;;;;;1.33;0.90;;;22.70;99.90;;;;;;5011934;28;20643;-70
2021/12/19 12:41:04;;;;;;;1.40;0.90;;;22.70;99.90;;;;;;5015397;28;20333;-71
2021/12/19 12:43:43;;;;;;;3.50;0.80;;;22.70;99.90;;;;;;5014989;28;20177;-71
2021/12/19 12:46:14;;;;;;;1.97;0.80;;;22.70;99.90;;;;;;5012420;28;20187;-70
2021/12/19 12:48:45;;;;;;;1.80;0.93;;;22.60;99.90;;;;;;4996031;28;20662;-70
2021/12/19 12:51:25;;;;;;;1.67;1.00;;;22.60;99.90;;;;;;4995640;28;20174;-68
2021/12/19 12:53:56;;;;;;;3.00;1.17;;;22.70;99.90;;;;;;4995777;28;20636;-69
2021/12/19 12:56:40;;;;;;;3.60;0.97;;;22.70;99.90;;;;;;5005267;28;20188;-69
2021/12/19 12:59:09;;;;;;;1.00;0.63;;;22.70;99.90;;;;;;5001212;28;20556;-68
2021/12/19 13:01:44;;;;;;;2.33;1.10;;;22.70;99.90;;;;;;5015884;28;20281;-69
2021/12/19 13:04:15;;;;;;;2.77;0.80;;;22.60;99.90;;;;;;5015219;28;20204;-68
2021/12/19 13:06:48;;;;;;;1.37;0.87;;;22.60;99.90;;;;;;5006974;28;20241;-69
2021/12/19 13:09:23;;;;;;;6.13;1.00;;;22.60;99.90;;;;;;4995631;28;20177;-68
2021/12/19 13:12:21;;;;;;;2.30;0.80;;;22.50;99.90;;;;;;4995180;28;20586;-68
2021/12/19 13:14:48;;;;;;;1.30;1.10;;;22.50;99.90;;;;;;4978487;28;20190;-70
2021/12/19 13:17:43;;;;;;;4.13;0.70;;;22.40;99.90;;;;;;5006297;28;20186;-69
2021/12/19 13:20:16;;;;;;;2.90;0.90;;;22.40;99.90;;;;;;5009219;28;20244;-70
2021/12/19 13:22:59;;;;;;;2.53;0.70;;;22.40;99.90;;;;;;5013917;28;20243;-68
2021/12/19 13:25:42;;;;;;;2.90;1.17;;;22.40;99.90;;;;;;4977507;28;20201;-70
2021/12/19 13:28:12;;;;;;;2.70;1.17;;;22.40;99.90;;;;;;4994962;28;20194;-68
2021/12/19 13:30:42;;;;;;;3.13;0.90;;;22.40;99.90;;;;;;4994755;28;20727;-68
2021/12/19 13:33:14;;;;;;;3.90;1.40;;;22.40;99.90;;;;;;4994754;28;20194;-69
2021/12/19 13:35:44;;;;;;;3.73;1.00;;;22.40;99.90;;;;;;5003954;28;20189;-69
2021/12/19 13:38:23;;;;;;;1.20;1.00;;;22.30;99.90;;;;;;4995106;28;20187;-69
2021/12/19 13:40:55;;;;;;;4.60;1.10;;;22.30;99.90;;;;;;4994622;28;20224;-69
2021/12/19 13:43:29;;;;;;;3.03;1.00;;;22.30;99.90;;;;;;4977218;28;20320;-69
2021/12/19 13:46:05;;;;;;;3.90;1.10;;;22.30;99.90;;;;;;4994696;28;20655;-69
2021/12/19 13:48:39;;;;;;;6.03;0.90;;;22.30;99.90;;;;;;4994781;28;20181;-69
2021/12/19 13:51:14;;;;;;;2.27;0.73;;;22.30;99.90;;;;;;4997196;28;20906;-68
2021/12/19 13:53:50;;;;;;;3.77;1.10;;;22.20;99.90;;;;;;5014280;28;20185;-69
2021/12/19 13:56:26;;;;;;;3.03;1.33;;;22.20;99.90;;;;;;5011403;28;20185;-70
2021/12/19 13:58:56;;;;;;;3.53;0.90;;;22.10;99.90;;;;;;4994713;28;20663;-69
2021/12/19 14:01:30;;;;;;;3.40;1.10;;;22.10;99.90;;;;;;4994385;28;20210;-70
2021/12/19 14:04:25;;;;;;;2.13;0.93;;;22.10;99.90;;;;;;4994507;28;20182;-70
2021/12/19 14:07:03;;;;;;;1.67;1.00;;;22.00;99.90;;;;;;4999917;28;20186;-69
2021/12/19 14:09:30;;;;;;;3.03;1.10;;;22.00;99.90;;;;;;5009588;28;20205;-70
2021/12/19 14:12:05;;;;;;;4.60;1.13;;;22.00;99.90;;;;;;5013688;28;20260;-72
2021/12/19 14:14:32;;;;;;;1.63;0.70;;;22.10;99.90;;;;;;5013636;28;20181;-72
2021/12/19 14:17:12;;;;;;;1.90;1.00;;;22.00;99.90;;;;;;5003808;28;20208;-71
2021/12/19 14:20:00;;;;;;;3.13;0.80;;;22.00;99.90;;;;;;5000864;28;20226;-72
2021/12/19 14:22:28;;;;;;;2.70;0.60;;;21.90;99.90;;;;;;5013727;28;20189;-73
2021/12/19 14:25:01;;;;;;;4.03;0.73;;;21.90;99.90;;;;;;5013701;28;20185;-73
2021/12/19 14:27:40;;;;;;;3.33;0.90;;;21.80;99.90;;;;;;5000892;28;20530;-71